Time;durP1;ratioP1;P1;durP2;ratioP2;P2;SDS_P1;SDS_P2;PMS_P1;PMS_P2;Temp;Humidity;BMP_temperature;BMP_pressure;BME280_temperature;BME280_humidity;BME280_pressure;Samples;Min_cycle;Max_cycle;Signal;HPM_P1;HPM_P2
2021/03/13 00:00:40;;;;;;;1.53;0.83;;;5.60;99.90;;;;;;5054231;28;20462;-65
2021/03/13 00:03:09;;;;;;;0.90;0.80;;;5.60;99.90;;;;;;5055104;28;20473;-63
2021/03/13 00:08:33;;;;;;;1.07;0.50;;;5.50;99.90;;;;;;5054849;28;20976;-62
2021/03/13 00:11:02;;;;;;;1.20;0.70;;;5.50;99.90;;;;;;5055009;28;20574;-63
2021/03/13 00:13:30;;;;;;;0.93;0.70;;;5.60;99.90;;;;;;5055290;28;20441;-62
2021/03/13 00:15:58;;;;;;;1.23;0.80;;;5.60;99.90;;;;;;5054644;28;20458;-62
2021/03/13 00:18:26;;;;;;;0.63;0.63;;;5.40;99.90;;;;;;5037503;28;20474;-62
2021/03/13 00:20:54;;;;;;;0.77;0.60;;;5.50;99.90;;;;;;5055148;28;20490;-65
2021/03/13 00:23:21;;;;;;;0.73;0.73;;;5.40;99.90;;;;;;5055079;28;20526;-64
2021/03/13 00:25:49;;;;;;;0.70;0.70;;;5.40;99.90;;;;;;5055509;28;20431;-63
2021/03/13 00:28:16;;;;;;;0.83;0.60;;;5.50;99.90;;;;;;5055172;28;20470;-62
2021/03/13 00:30:46;;;;;;;0.80;0.73;;;5.60;99.90;;;;;;5049840;28;20470;-62
2021/03/13 00:33:16;;;;;;;1.23;0.97;;;5.60;99.90;;;;;;5056318;28;20430;-62
2021/03/13 00:35:49;;;;;;;3.00;0.90;;;5.70;99.90;;;;;;5057606;28;20490;-62
2021/03/13 00:38:18;;;;;;;1.40;0.70;;;5.70;99.90;;;;;;5057397;28;20453;-62
2021/03/13 00:40:46;;;;;;;0.70;0.60;;;5.70;99.90;;;;;;5039208;28;20422;-62
2021/03/13 00:43:15;;;;;;;1.10;0.60;;;5.80;99.90;;;;;;5056950;28;20478;-65
2021/03/13 00:45:44;;;;;;;2.00;0.60;;;5.80;99.90;;;;;;5055497;28;20477;-62
2021/03/13 00:48:13;;;;;;;1.43;0.60;;;5.80;99.90;;;;;;5057123;28;21014;-62
2021/03/13 00:50:43;;;;;;;0.70;0.57;;;5.90;99.90;;;;;;5036656;28;20447;-62
2021/03/13 00:53:12;;;;;;;3.00;1.30;;;5.70;99.90;;;;;;5054970;28;20426;-62
2021/03/13 00:55:39;;;;;;;2.17;0.77;;;5.70;99.90;;;;;;5054894;28;20461;-63
2021/03/13 00:58:10;;;;;;;1.60;1.50;;;5.70;99.90;;;;;;5037512;28;20470;-65
2021/03/13 01:00:48;;;;;;;1.80;0.73;;;5.50;99.90;;;;;;5036570;28;20554;-62
2021/03/13 01:03:21;;;;;;;0.80;0.70;;;5.50;99.90;;;;;;5037573;28;20446;-62
2021/03/13 01:06:13;;;;;;;0.70;0.60;;;5.50;99.90;;;;;;5036452;28;20517;-62
2021/03/13 01:08:42;;;;;;;1.57;0.67;;;5.60;99.90;;;;;;5040210;28;20448;-62
2021/03/13 01:11:18;;;;;;;1.13;0.90;;;5.60;99.90;;;;;;5055026;28;20438;-63
2021/03/13 01:13:52;;;;;;;1.50;0.70;;;5.60;99.90;;;;;;5056060;28;20480;-64
2021/03/13 01:16:23;;;;;;;0.80;0.60;;;5.60;99.90;;;;;;5054990;28;20470;-64
2021/03/13 01:18:51;;;;;;;0.90;0.60;;;5.70;99.90;;;;;;5073904;28;20472;-63
2021/03/13 01:21:25;;;;;;;1.33;1.00;;;5.70;99.90;;;;;;5056057;28;20487;-63
2021/03/13 01:23:53;;;;;;;2.10;0.80;;;5.70;99.90;;;;;;5074026;28;20506;-62
2021/03/13 01:26:29;;;;;;;1.67;0.53;;;5.50;99.90;;;;;;5056695;28;20431;-61
2021/03/13 01:29:01;;;;;;;2.13;1.13;;;5.60;99.90;;;;;;5074391;28;20488;-62
2021/03/13 01:31:53;;;;;;;0.60;0.50;;;5.70;99.90;;;;;;5062633;28;20465;-62
2021/03/13 01:34:30;;;;;;;0.70;0.70;;;5.70;99.90;;;;;;5056657;28;20450;-62
2021/03/13 01:37:07;;;;;;;0.80;0.60;;;5.80;99.90;;;;;;5073756;28;20452;-64
2021/03/13 01:39:40;;;;;;;0.60;0.60;;;5.80;99.90;;;;;;5072607;28;20458;-63
2021/03/13 01:42:15;;;;;;;2.03;0.60;;;5.70;99.90;;;;;;5041318;28;20465;-62
2021/03/13 01:44:44;;;;;;;0.70;0.50;;;5.80;99.90;;;;;;5056224;28;20946;-62
2021/03/13 01:47:20;;;;;;;0.90;0.60;;;5.80;99.90;;;;;;5055709;28;20471;-62
2021/03/13 01:50:14;;;;;;;1.33;0.50;;;5.80;99.90;;;;;;5073764;28;20446;-62
2021/03/13 01:52:44;;;;;;;1.70;0.60;;;5.80;99.90;;;;;;5074545;28;20465;-63
2021/03/13 01:55:13;;;;;;;1.13;0.67;;;5.70;99.90;;;;;;5073798;28;20440;-62
2021/03/13 01:57:43;;;;;;;0.80;0.77;;;5.80;99.90;;;;;;5074357;28;20417;-63
2021/03/13 02:00:14;;;;;;;0.70;0.67;;;5.70;99.90;;;;;;5056459;28;20537;-62
2021/03/13 02:02:44;;;;;;;1.53;0.80;;;5.80;99.90;;;;;;5092522;28;20458;-65
2021/03/13 02:05:22;;;;;;;0.70;0.53;;;5.80;99.90;;;;;;5072895;28;20433;-64
2021/03/13 02:08:01;;;;;;;0.50;0.47;;;5.70;99.90;;;;;;5076907;28;20450;-63
2021/03/13 02:10:37;;;;;;;4.70;0.80;;;5.60;99.90;;;;;;5076809;28;20479;-62
2021/03/13 02:13:16;;;;;;;2.00;0.87;;;5.70;99.90;;;;;;5094687;28;20461;-63
2021/03/13 02:15:57;;;;;;;0.43;0.43;;;5.50;99.90;;;;;;5075106;28;20467;-64
2021/03/13 02:18:35;;;;;;;0.80;0.70;;;5.50;99.90;;;;;;5080407;28;20463;-62
2021/03/13 02:21:09;;;;;;;1.17;1.07;;;5.50;99.90;;;;;;5080510;28;20432;-64
2021/03/13 02:24:02;;;;;;;1.07;0.67;;;5.50;99.90;;;;;;5098389;28;20572;-62
2021/03/13 02:26:43;;;;;;;0.60;0.60;;;5.30;99.90;;;;;;5080484;28;20461;-62
2021/03/13 02:29:44;;;;;;;1.30;0.77;;;5.30;99.90;;;;;;5097121;28;20434;-63
2021/03/13 02:32:24;;;;;;;0.57;0.50;;;5.20;99.90;;;;;;5078020;28;20472;-63
2021/03/13 02:35:20;;;;;;;0.77;0.70;;;5.10;99.90;;;;;;5075170;28;20448;-65
2021/03/13 02:37:55;;;;;;;1.33;0.60;;;5.10;99.90;;;;;;5075833;28;20435;-65
2021/03/13 02:40:30;;;;;;;0.80;0.67;;;5.10;99.90;;;;;;5062345;28;20462;-62
2021/03/13 02:43:02;;;;;;;1.23;0.57;;;5.20;99.90;;;;;;5057871;28;20858;-62
2021/03/13 02:45:34;;;;;;;1.23;0.80;;;5.10;99.90;;;;;;5058018;28;20967;-65
2021/03/13 02:48:08;;;;;;;1.00;0.80;;;5.00;99.90;;;;;;5058130;28;20737;-66
2021/03/13 02:50:37;;;;;;;2.37;1.00;;;5.10;99.90;;;;;;5058156;28;20458;-64
2021/03/13 02:53:10;;;;;;;0.90;0.60;;;5.10;99.90;;;;;;5058045;28;20480;-62
2021/03/13 02:55:41;;;;;;;1.10;1.00;;;5.10;99.90;;;;;;5056420;28;20456;-62
2021/03/13 02:58:11;;;;;;;0.60;0.60;;;5.10;99.90;;;;;;5056390;28;20437;-63
2021/03/13 03:00:42;;;;;;;1.00;0.70;;;5.10;99.90;;;;;;5056852;28;20462;-62
2021/03/13 03:03:17;;;;;;;3.30;0.80;;;5.10;99.90;;;;;;5057458;28;20925;-63
2021/03/13 03:06:08;;;;;;;1.07;0.70;;;5.00;99.90;;;;;;5056128;28;20941;-63
2021/03/13 03:08:42;;;;;;;2.00;1.00;;;5.00;99.90;;;;;;5057761;28;20462;-62
2021/03/13 03:11:14;;;;;;;1.10;0.60;;;4.90;99.90;;;;;;5057378;28;20933;-64
2021/03/13 03:13:43;;;;;;;0.90;0.73;;;5.00;99.90;;;;;;5057594;28;20448;-62
2021/03/13 03:16:16;;;;;;;0.83;0.83;;;5.00;99.90;;;;;;5054298;28;20484;-62
2021/03/13 03:18:45;;;;;;;1.00;1.00;;;5.00;99.90;;;;;;5056960;28;20512;-62
2021/03/13 03:21:14;;;;;;;3.00;1.00;;;5.00;99.90;;;;;;5056982;28;20430;-63
2021/03/13 03:23:42;;;;;;;1.00;1.00;;;5.00;99.90;;;;;;5055835;28;20468;-62
2021/03/13 03:26:09;;;;;;;1.63;0.97;;;4.90;99.90;;;;;;5055327;28;20754;-62
2021/03/13 03:28:37;;;;;;;4.00;1.93;;;5.00;99.90;;;;;;5054248;28;20548;-62
2021/03/13 03:31:14;;;;;;;2.20;1.03;;;5.00;99.90;;;;;;5053979;28;20542;-62
2021/03/13 03:33:44;;;;;;;1.00;0.90;;;4.80;99.90;;;;;;5055727;28;20477;-66
2021/03/13 03:36:14;;;;;;;1.57;1.10;;;4.90;99.90;;;;;;5055848;28;20470;-62
2021/03/13 03:38:44;;;;;;;1.00;0.73;;;4.80;99.90;;;;;;5055846;28;20466;-62
2021/03/13 03:41:20;;;;;;;0.90;0.80;;;4.80;99.90;;;;;;5055437;28;20430;-62
2021/03/13 03:43:55;;;;;;;1.23;0.77;;;4.80;99.90;;;;;;5055007;28;20445;-63
2021/03/13 03:46:34;;;;;;;1.10;1.00;;;4.80;99.90;;;;;;5038333;28;20997;-63
2021/03/13 03:49:05;;;;;;;0.73;0.60;;;4.80;99.90;;;;;;5055722;28;20418;-62
2021/03/13 03:51:40;;;;;;;0.87;0.83;;;4.80;99.90;;;;;;5056194;28;20446;-62
2021/03/13 03:54:15;;;;;;;1.20;0.80;;;4.80;99.90;;;;;;5054341;28;20426;-62
2021/03/13 03:56:44;;;;;;;0.90;0.80;;;4.80;99.90;;;;;;5039098;28;20461;-62
2021/03/13 03:59:15;;;;;;;1.63;1.20;;;4.80;99.90;;;;;;5055853;28;20888;-64
2021/03/13 04:01:52;;;;;;;1.97;0.97;;;4.90;99.90;;;;;;5055150;28;20481;-62
2021/03/13 04:04:22;;;;;;;0.97;0.80;;;4.90;99.90;;;;;;5056021;28;20796;-62
2021/03/13 04:06:51;;;;;;;0.80;0.50;;;5.00;99.90;;;;;;5056384;28;20450;-62
2021/03/13 04:09:22;;;;;;;1.00;0.87;;;5.10;99.90;;;;;;5056474;28;20442;-63
2021/03/13 04:11:51;;;;;;;0.80;0.70;;;5.10;99.90;;;;;;5056285;28;20480;-63
2021/03/13 04:14:19;;;;;;;1.47;1.10;;;5.10;99.90;;;;;;5056058;28;20489;-62
2021/03/13 04:16:48;;;;;;;0.73;0.70;;;5.10;99.90;;;;;;5047135;22;20487;-66
2021/03/13 04:19:16;;;;;;;0.83;0.80;;;5.20;99.90;;;;;;5000894;28;20514;-64
2021/03/13 04:21:44;;;;;;;2.60;1.07;;;5.20;99.90;;;;;;5018518;28;20451;-65
2021/03/13 04:24:13;;;;;;;1.00;0.90;;;5.30;99.90;;;;;;5019126;28;20436;-65
2021/03/13 04:26:43;;;;;;;1.20;0.90;;;5.30;99.90;;;;;;5019009;28;20451;-65
2021/03/13 04:29:11;;;;;;;1.83;1.20;;;5.20;99.90;;;;;;5019203;28;20428;-65
2021/03/13 04:31:38;;;;;;;2.17;1.03;;;5.00;99.90;;;;;;5016703;28;20480;-65
2021/03/13 04:34:10;;;;;;;1.83;1.00;;;5.10;99.90;;;;;;5018628;28;20563;-65
2021/03/13 04:36:38;;;;;;;1.50;0.90;;;5.20;99.90;;;;;;5017533;28;20440;-65
2021/03/13 04:39:07;;;;;;;1.27;0.97;;;5.10;99.90;;;;;;5001240;28;20474;-65
2021/03/13 04:41:35;;;;;;;0.90;0.80;;;5.10;99.90;;;;;;5019966;28;20498;-65
2021/03/13 04:44:03;;;;;;;1.10;0.73;;;5.10;99.90;;;;;;5019751;28;20433;-65
2021/03/13 04:46:34;;;;;;;1.23;1.13;;;5.10;99.90;;;;;;5030417;28;20474;-65
2021/03/13 04:49:11;;;;;;;1.03;0.90;;;5.20;99.90;;;;;;5053238;22;20418;-62
2021/03/13 04:51:39;;;;;;;1.03;0.80;;;5.20;99.90;;;;;;5015011;28;20439;-62
2021/03/13 04:54:08;;;;;;;1.07;0.97;;;5.20;99.90;;;;;;5040848;23;20412;-65
2021/03/13 04:59:28;;;;;;;1.20;1.10;;;4.90;99.90;;;;;;5077622;28;20465;-65
2021/03/13 05:01:58;;;;;;;1.77;0.87;;;5.00;99.90;;;;;;5091586;22;20497;-63
2021/03/13 05:04:27;;;;;;;1.40;0.90;;;5.00;99.90;;;;;;5077613;28;20442;-62
2021/03/13 05:06:54;;;;;;;2.47;1.03;;;4.90;99.90;;;;;;5093242;22;20768;-64
2021/03/13 05:09:22;;;;;;;2.20;0.90;;;4.90;99.90;;;;;;5062613;28;20415;-64
2021/03/13 05:11:50;;;;;;;3.00;1.27;;;5.00;99.90;;;;;;5097422;28;20524;-64
2021/03/13 05:14:17;;;;;;;1.83;1.00;;;5.00;99.90;;;;;;5079524;28;20427;-64
2021/03/13 05:16:44;;;;;;;0.90;0.80;;;5.10;99.90;;;;;;5082423;28;20515;-64
2021/03/13 05:19:12;;;;;;;1.30;0.83;;;5.10;99.90;;;;;;5077629;28;20457;-65
2021/03/13 05:21:41;;;;;;;1.57;0.90;;;5.10;99.90;;;;;;5077268;28;20430;-64
2021/03/13 05:24:09;;;;;;;0.80;0.80;;;5.20;99.90;;;;;;5058926;28;20416;-64
2021/03/13 05:26:36;;;;;;;1.77;0.93;;;5.30;99.90;;;;;;5078166;28;20442;-66
2021/03/13 05:29:03;;;;;;;1.20;1.00;;;5.30;99.90;;;;;;5077663;28;20510;-64
2021/03/13 05:31:31;;;;;;;1.47;0.77;;;5.40;99.90;;;;;;5076480;28;20500;-65
2021/03/13 05:34:01;;;;;;;1.00;0.90;;;5.40;99.90;;;;;;5078085;28;20550;-65
2021/03/13 05:36:28;;;;;;;0.90;0.80;;;5.50;99.90;;;;;;5078890;28;20933;-66
2021/03/13 05:38:57;;;;;;;2.93;0.90;;;5.50;99.90;;;;;;5078252;28;20466;-65
2021/03/13 05:41:51;;;;;;;1.57;1.13;;;5.50;99.90;;;;;;5078295;28;20436;-65
2021/03/13 05:44:19;;;;;;;1.47;0.67;;;5.50;99.90;;;;;;5078955;28;20435;-64
2021/03/13 05:46:47;;;;;;;0.70;0.70;;;5.60;99.90;;;;;;5077544;28;20473;-65
2021/03/13 05:49:15;;;;;;;4.53;2.03;;;5.70;99.90;;;;;;5078730;28;20455;-64
2021/03/13 05:51:45;;;;;;;2.20;0.93;;;5.70;99.90;;;;;;5079324;28;20484;-66
2021/03/13 05:54:15;;;;;;;1.30;0.83;;;5.80;99.90;;;;;;5063917;28;20499;-67
2021/03/13 05:56:44;;;;;;;1.30;0.70;;;5.90;99.90;;;;;;5064325;28;20437;-65
2021/03/13 05:59:13;;;;;;;2.00;0.90;;;6.10;99.90;;;;;;5083611;28;20469;-64
2021/03/13 06:01:41;;;;;;;2.10;0.77;;;6.20;99.90;;;;;;5082346;28;20476;-67
2021/03/13 06:04:24;;;;;;;1.00;0.80;;;6.20;99.90;;;;;;5064222;28;20430;-65
2021/03/13 06:06:52;;;;;;;4.33;0.90;;;6.30;99.90;;;;;;5069494;28;20508;-65
2021/03/13 06:09:21;;;;;;;2.40;1.67;;;6.50;99.90;;;;;;5091511;28;20490;-65
2021/03/13 06:11:49;;;;;;;1.47;0.80;;;6.50;99.90;;;;;;5090957;28;20412;-67
2021/03/13 06:14:16;;;;;;;1.80;0.80;;;6.40;99.90;;;;;;5075284;28;20431;-66
2021/03/13 06:16:44;;;;;;;1.63;0.90;;;6.50;99.90;;;;;;5105786;28;21068;-66
2021/03/13 06:19:11;;;;;;;1.90;1.07;;;6.60;99.90;;;;;;5105498;28;20708;-64
2021/03/13 06:21:40;;;;;;;0.87;0.70;;;6.60;99.90;;;;;;5101752;28;20422;-66
2021/03/13 06:24:18;;;;;;;1.47;0.97;;;6.70;99.90;;;;;;5084294;28;20450;-64
2021/03/13 06:26:55;;;;;;;1.47;0.90;;;6.60;99.90;;;;;;5065259;28;20981;-65
2021/03/13 06:29:24;;;;;;;1.33;1.23;;;6.70;99.90;;;;;;5100454;28;20503;-65
2021/03/13 06:32:05;;;;;;;2.00;0.90;;;6.80;99.90;;;;;;5101237;28;20489;-63
2021/03/13 06:34:48;;;;;;;2.87;0.90;;;6.80;99.90;;;;;;5102207;28;20423;-63
2021/03/13 06:37:27;;;;;;;2.20;0.93;;;6.90;99.90;;;;;;5102113;28;20445;-64
2021/03/13 06:39:55;;;;;;;1.83;1.20;;;7.00;99.90;;;;;;5102355;28;20442;-64
2021/03/13 06:42:27;;;;;;;1.60;1.00;;;7.10;99.90;;;;;;5101139;28;20442;-64
2021/03/13 06:44:56;;;;;;;1.83;0.97;;;6.90;99.90;;;;;;5102013;28;20448;-66
2021/03/13 06:47:31;;;;;;;2.13;0.87;;;6.90;99.90;;;;;;5101528;28;21065;-64
2021/03/13 06:50:16;;;;;;;0.97;0.93;;;7.00;99.90;;;;;;5101515;28;20919;-64
2021/03/13 06:52:45;;;;;;;1.07;0.90;;;7.00;99.90;;;;;;5100825;28;20434;-63
2021/03/13 06:55:19;;;;;;;1.27;0.70;;;7.00;99.90;;;;;;5101596;28;20435;-64
2021/03/13 06:57:48;;;;;;;1.30;0.90;;;7.10;99.90;;;;;;5082778;28;20449;-64
2021/03/13 07:00:28;;;;;;;2.93;1.10;;;7.20;99.90;;;;;;5082590;28;20441;-64
2021/03/13 07:03:11;;;;;;;1.40;1.10;;;7.30;99.90;;;;;;5100972;28;20412;-63
2021/03/13 07:05:40;;;;;;;1.40;0.90;;;7.10;99.90;;;;;;5082507;28;20434;-63
2021/03/13 07:08:24;;;;;;;1.73;0.80;;;7.20;99.90;;;;;;5100133;28;20474;-64
2021/03/13 07:10:54;;;;;;;1.10;0.70;;;7.30;99.90;;;;;;5100420;28;20430;-63
2021/03/13 07:13:32;;;;;;;2.03;0.80;;;7.40;99.90;;;;;;5099356;28;20435;-64
2021/03/13 07:16:33;;;;;;;1.73;0.70;;;7.60;99.90;;;;;;5089051;28;20453;-64
2021/03/13 07:19:03;;;;;;;5.00;1.30;;;7.60;99.90;;;;;;5118128;28;20415;-65
2021/03/13 07:21:32;;;;;;;2.63;1.00;;;7.60;99.90;;;;;;5119665;28;20499;-64
2021/03/13 07:24:01;;;;;;;3.97;1.10;;;7.70;99.90;;;;;;5118226;28;20438;-65
2021/03/13 07:26:35;;;;;;;1.33;0.80;;;7.70;99.90;;;;;;5121724;28;20397;-64
2021/03/13 07:29:06;;;;;;;0.60;0.60;;;7.70;99.90;;;;;;5100269;28;20438;-65
2021/03/13 07:34:31;;;;;;;1.23;0.70;;;8.00;99.90;;;;;;5124339;28;20418;-64
2021/03/13 07:37:01;;;;;;;1.00;0.80;;;8.00;99.90;;;;;;5120113;28;20428;-65
2021/03/13 07:39:33;;;;;;;4.67;1.10;;;8.30;99.90;;;;;;5099147;28;20444;-65
2021/03/13 07:42:06;;;;;;;0.97;0.87;;;8.40;99.90;;;;;;5119061;28;20433;-65
2021/03/13 07:44:36;;;;;;;1.77;1.23;;;8.40;99.90;;;;;;5118863;28;20435;-65
2021/03/13 07:47:03;;;;;;;3.50;1.10;;;8.60;99.90;;;;;;5099728;28;20573;-65
2021/03/13 07:49:35;;;;;;;1.60;1.50;;;8.70;99.90;;;;;;5100221;28;20422;-64
2021/03/13 07:52:06;;;;;;;1.43;0.70;;;9.00;99.90;;;;;;5118170;28;20406;-66
2021/03/13 07:55:01;;;;;;;0.93;0.93;;;8.80;99.90;;;;;;5100803;28;20406;-66
2021/03/13 07:57:29;;;;;;;2.03;0.83;;;8.60;99.90;;;;;;5099429;28;20414;-65
2021/03/13 07:59:58;;;;;;;0.80;0.50;;;8.70;99.90;;;;;;5116828;28;20536;-66
2021/03/13 08:02:37;;;;;;;1.97;1.03;;;8.60;99.90;;;;;;5097777;28;20470;-68
2021/03/13 08:05:07;;;;;;;0.93;0.87;;;8.60;99.90;;;;;;5098024;28;20481;-64
2021/03/13 08:07:53;;;;;;;1.47;0.90;;;8.50;99.90;;;;;;5114932;28;20467;-66
2021/03/13 08:10:41;;;;;;;1.67;1.13;;;8.50;99.90;;;;;;5098269;28;20402;-64
2021/03/13 08:13:10;;;;;;;2.47;1.00;;;8.90;99.90;;;;;;5116079;28;20772;-64
2021/03/13 08:15:45;;;;;;;1.17;1.07;;;8.80;99.90;;;;;;5097087;28;20792;-64
2021/03/13 08:18:38;;;;;;;0.87;0.70;;;8.80;99.90;;;;;;5118144;28;20398;-64
2021/03/13 08:21:43;;;;;;;1.60;0.90;;;8.70;99.90;;;;;;5117650;28;20437;-66
2021/03/13 08:24:12;;;;;;;1.83;0.80;;;8.80;99.90;;;;;;5100495;28;20748;-66
2021/03/13 08:27:03;;;;;;;1.07;0.70;;;8.70;99.90;;;;;;5117904;28;20459;-65
2021/03/13 08:29:56;;;;;;;2.60;0.70;;;8.70;99.90;;;;;;5115167;28;20531;-65
2021/03/13 08:33:04;;;;;;;1.87;0.93;;;8.80;99.90;;;;;;5098384;28;20444;-66
2021/03/13 08:35:45;;;;;;;2.27;1.03;;;8.80;99.90;;;;;;5116273;28;20490;-65
2021/03/13 08:38:16;;;;;;;1.13;0.70;;;8.80;99.90;;;;;;5117230;28;20424;-64
2021/03/13 08:40:49;;;;;;;0.80;0.63;;;8.90;99.90;;;;;;5118972;28;20463;-64
2021/03/13 08:43:39;;;;;;;1.60;0.80;;;8.90;99.90;;;;;;5117196;28;20892;-64
2021/03/13 08:49:58;;;;;;;1.97;0.70;;;9.10;99.90;;;;;;5114386;28;20435;-65
2021/03/13 08:52:28;;;;;;;4.83;0.77;;;9.00;99.90;;;;;;5115121;28;20428;-66
2021/03/13 08:54:57;;;;;;;1.23;0.83;;;9.30;99.90;;;;;;5115852;28;20430;-66
2021/03/13 08:57:48;;;;;;;0.97;0.83;;;9.40;99.90;;;;;;5097569;28;20922;-65
2021/03/13 09:00:17;;;;;;;4.63;1.00;;;9.30;99.90;;;;;;5092001;28;20467;-65
2021/03/13 09:02:47;;;;;;;0.77;0.57;;;9.30;99.90;;;;;;5096614;28;20431;-67
2021/03/13 09:05:19;;;;;;;0.90;0.67;;;9.60;99.90;;;;;;5078391;28;20430;-67
2021/03/13 09:07:50;;;;;;;1.10;0.90;;;9.70;99.90;;;;;;5079253;28;20996;-65
2021/03/13 09:10:19;;;;;;;1.23;0.60;;;9.40;99.90;;;;;;5097053;28;20440;-65
2021/03/13 09:12:47;;;;;;;1.30;1.00;;;9.40;99.90;;;;;;5097283;28;20433;-66
2021/03/13 09:15:16;;;;;;;1.53;0.73;;;9.40;99.90;;;;;;5078680;28;20438;-65
2021/03/13 09:17:44;;;;;;;1.33;0.93;;;9.40;99.90;;;;;;5079398;28;20445;-67
2021/03/13 09:20:14;;;;;;;1.70;0.73;;;9.50;99.90;;;;;;5097149;28;20433;-65
2021/03/13 09:22:44;;;;;;;2.37;0.63;;;9.50;99.90;;;;;;5096949;28;20441;-69
2021/03/13 09:25:15;;;;;;;2.73;1.03;;;9.70;99.90;;;;;;5078311;28;20486;-66
2021/03/13 09:27:42;;;;;;;0.80;0.63;;;9.70;99.90;;;;;;5099164;28;20424;-65
2021/03/13 09:30:12;;;;;;;0.80;0.70;;;9.80;99.90;;;;;;5100809;28;20440;-68
2021/03/13 09:32:45;;;;;;;1.57;0.70;;;9.80;99.70;;;;;;5098840;28;20452;-67
2021/03/13 09:35:14;;;;;;;2.93;0.70;;;9.90;99.80;;;;;;5099702;28;20428;-66
2021/03/13 09:37:42;;;;;;;4.17;1.20;;;9.80;99.60;;;;;;5100990;28;20428;-66
2021/03/13 09:40:14;;;;;;;1.80;1.23;;;9.70;99.50;;;;;;5100645;28;20443;-66
2021/03/13 09:42:42;;;;;;;1.50;1.00;;;9.80;99.50;;;;;;5082427;28;20454;-65
2021/03/13 09:45:12;;;;;;;0.93;0.70;;;9.80;99.70;;;;;;5083159;28;20442;-69
2021/03/13 09:47:41;;;;;;;1.07;0.70;;;9.70;99.60;;;;;;5118442;28;20505;-65
2021/03/13 09:50:11;;;;;;;1.27;1.03;;;9.60;99.60;;;;;;5118676;28;20423;-64
2021/03/13 09:52:40;;;;;;;1.53;1.17;;;9.80;99.40;;;;;;5119966;28;20428;-66
2021/03/13 09:55:10;;;;;;;1.10;0.60;;;10.00;98.70;;;;;;5119064;28;20429;-69
2021/03/13 09:57:43;;;;;;;0.70;0.67;;;10.00;98.50;;;;;;5121156;28;20439;-64
2021/03/13 10:00:12;;;;;;;5.83;1.17;;;9.70;99.10;;;;;;5118468;28;20463;-65
2021/03/13 10:02:40;;;;;;;1.30;0.63;;;9.60;99.40;;;;;;5099040;28;20456;-65
2021/03/13 10:05:13;;;;;;;1.17;0.70;;;9.70;99.20;;;;;;5080097;28;20439;-66
2021/03/13 10:07:42;;;;;;;2.70;0.80;;;9.90;99.00;;;;;;5097335;28;20518;-65
2021/03/13 10:10:18;;;;;;;1.77;0.80;;;9.90;98.80;;;;;;5097452;28;20854;-66
2021/03/13 10:12:48;;;;;;;0.90;0.60;;;10.10;98.30;;;;;;5079497;28;20423;-66
2021/03/13 10:15:19;;;;;;;1.87;1.30;;;10.00;97.70;;;;;;5096651;28;20447;-66
2021/03/13 10:17:56;;;;;;;1.33;0.70;;;10.00;97.80;;;;;;5079925;28;20464;-65
2021/03/13 10:20:26;;;;;;;1.13;1.03;;;10.10;97.40;;;;;;5080432;28;20924;-65
2021/03/13 10:22:55;;;;;;;3.93;1.03;;;10.20;97.50;;;;;;5098144;28;20685;-67
2021/03/13 10:25:25;;;;;;;1.47;0.90;;;10.00;97.70;;;;;;5098590;28;20480;-69
2021/03/13 10:27:53;;;;;;;0.70;0.60;;;10.00;97.80;;;;;;5097962;28;20469;-66
2021/03/13 10:30:26;;;;;;;1.37;0.70;;;10.30;97.30;;;;;;5096197;28;20400;-65
2021/03/13 10:32:54;;;;;;;1.27;0.80;;;10.40;97.40;;;;;;5098153;28;20425;-66
2021/03/13 10:35:26;;;;;;;1.47;0.83;;;10.30;96.90;;;;;;5098132;28;20943;-65
2021/03/13 10:37:57;;;;;;;1.50;0.90;;;10.30;96.90;;;;;;5097567;28;20448;-65
2021/03/13 10:40:36;;;;;;;0.90;0.70;;;10.30;97.10;;;;;;5078920;28;20501;-66
2021/03/13 10:43:30;;;;;;;1.00;1.00;;;10.40;96.50;;;;;;5080070;28;20433;-65
2021/03/13 10:46:06;;;;;;;1.57;0.80;;;10.30;96.30;;;;;;5077398;28;20504;-64
2021/03/13 10:48:35;;;;;;;1.23;0.80;;;10.40;96.40;;;;;;5077911;28;20523;-65
2021/03/13 10:51:04;;;;;;;5.10;1.40;;;10.50;96.10;;;;;;5061624;28;20778;-66
2021/03/13 10:53:34;;;;;;;0.63;0.60;;;10.60;96.20;;;;;;5088400;28;20431;-65
2021/03/13 10:56:03;;;;;;;1.07;0.80;;;10.70;95.40;;;;;;5097419;28;20430;-67
2021/03/13 10:58:32;;;;;;;0.97;0.60;;;10.80;95.10;;;;;;5089861;28;20434;-65
2021/03/13 11:01:03;;;;;;;2.60;0.83;;;10.80;95.10;;;;;;5104883;28;20544;-65
2021/03/13 11:03:30;;;;;;;2.77;1.30;;;10.60;95.50;;;;;;5110223;28;20427;-65
2021/03/13 11:05:58;;;;;;;1.10;0.60;;;10.70;95.00;;;;;;5100057;28;20851;-67
2021/03/13 11:08:28;;;;;;;1.10;0.60;;;10.80;94.50;;;;;;5118225;28;20467;-64
2021/03/13 11:10:57;;;;;;;1.93;1.00;;;10.80;94.50;;;;;;5118178;28;20977;-66
2021/03/13 11:13:26;;;;;;;2.07;0.80;;;10.70;94.60;;;;;;5118082;28;20424;-66
2021/03/13 11:15:56;;;;;;;1.07;0.80;;;10.80;94.10;;;;;;5117297;28;20489;-67
2021/03/13 11:18:23;;;;;;;0.80;0.60;;;10.80;93.70;;;;;;5118056;28;20424;-65
2021/03/13 11:20:51;;;;;;;2.30;0.70;;;10.90;93.00;;;;;;5118664;28;20459;-69
2021/03/13 11:23:20;;;;;;;1.20;0.80;;;11.10;92.90;;;;;;5099961;28;20480;-66
2021/03/13 11:25:48;;;;;;;4.00;0.97;;;11.10;92.60;;;;;;5117696;28;20432;-65
2021/03/13 11:28:17;;;;;;;0.70;0.40;;;11.10;92.50;;;;;;5118336;28;20812;-67
2021/03/13 11:30:44;;;;;;;0.83;0.60;;;11.30;92.00;;;;;;5095742;28;20472;-65
2021/03/13 11:33:13;;;;;;;1.03;0.67;;;11.30;91.90;;;;;;5096871;28;20480;-64
2021/03/13 11:35:44;;;;;;;1.53;0.50;;;11.20;91.90;;;;;;5098090;28;20523;-65
2021/03/13 11:38:29;;;;;;;1.03;0.53;;;11.20;91.90;;;;;;5097192;28;20416;-66
2021/03/13 11:40:57;;;;;;;1.63;0.70;;;11.10;92.00;;;;;;5095340;28;20457;-65
2021/03/13 11:43:24;;;;;;;0.70;0.50;;;11.20;91.90;;;;;;5097231;28;20956;-68
2021/03/13 11:45:52;;;;;;;1.53;0.90;;;11.20;91.90;;;;;;5096086;28;20468;-64
2021/03/13 11:48:20;;;;;;;1.30;0.60;;;11.20;91.90;;;;;;5096264;28;20459;-67
2021/03/13 11:50:48;;;;;;;2.00;0.87;;;11.20;92.10;;;;;;5078239;28;20447;-66
2021/03/13 11:53:18;;;;;;;1.00;0.83;;;11.10;91.90;;;;;;5097554;28;20451;-66
2021/03/13 11:55:46;;;;;;;1.27;0.50;;;11.10;92.60;;;;;;5103607;28;20475;-65
2021/03/13 11:58:13;;;;;;;2.03;0.80;;;11.20;92.30;;;;;;5103877;28;20570;-67
2021/03/13 12:01:01;;;;;;;0.60;0.60;;;11.30;92.30;;;;;;5077469;28;20480;-65
2021/03/13 12:03:30;;;;;;;1.57;0.60;;;11.00;92.60;;;;;;5096929;28;20498;-66
2021/03/13 12:05:57;;;;;;;1.00;0.70;;;11.10;92.80;;;;;;5097027;28;20447;-65
2021/03/13 12:08:25;;;;;;;0.83;0.60;;;11.00;92.90;;;;;;5095804;28;21022;-67
2021/03/13 12:10:53;;;;;;;1.23;0.77;;;10.90;93.10;;;;;;5079445;28;20414;-66
2021/03/13 12:13:45;;;;;;;0.90;0.53;;;11.00;93.30;;;;;;5097690;28;20436;-66
2021/03/13 12:16:13;;;;;;;3.63;0.90;;;11.10;93.30;;;;;;5105808;28;20562;-66
2021/03/13 12:18:43;;;;;;;1.67;0.60;;;11.00;93.40;;;;;;5118044;28;20433;-66
2021/03/13 12:21:11;;;;;;;1.30;0.60;;;11.00;94.10;;;;;;5116627;28;20520;-66
2021/03/13 12:23:39;;;;;;;0.70;0.60;;;11.00;94.40;;;;;;5117586;28;20432;-65
2021/03/13 12:26:09;;;;;;;1.63;0.60;;;10.80;95.00;;;;;;5117216;28;20435;-65
2021/03/13 12:28:36;;;;;;;0.57;0.47;;;10.50;95.90;;;;;;5118362;28;20423;-68
2021/03/13 12:31:04;;;;;;;2.03;1.00;;;10.50;96.20;;;;;;5099234;28;20475;-66
2021/03/13 12:33:31;;;;;;;0.90;0.70;;;10.50;96.20;;;;;;5116498;28;20609;-66
2021/03/13 12:35:59;;;;;;;0.60;0.50;;;10.40;96.50;;;;;;5080523;28;20448;-66
2021/03/13 12:38:27;;;;;;;0.60;0.57;;;10.30;96.60;;;;;;5115705;28;20441;-66
2021/03/13 12:41:05;;;;;;;0.77;0.60;;;10.30;97.00;;;;;;5098326;28;20441;-64
2021/03/13 12:43:32;;;;;;;1.07;0.90;;;10.40;97.90;;;;;;5098799;28;20652;-67
2021/03/13 12:46:00;;;;;;;0.70;0.53;;;10.00;98.20;;;;;;5095616;28;20475;-65
2021/03/13 12:48:29;;;;;;;1.70;0.60;;;10.10;99.20;;;;;;5115150;28;20442;-66
2021/03/13 12:50:57;;;;;;;1.20;0.60;;;10.00;99.80;;;;;;5098776;28;20446;-65
2021/03/13 12:53:28;;;;;;;0.80;0.60;;;9.90;99.90;;;;;;5119063;28;20783;-65
2021/03/13 12:55:55;;;;;;;1.47;0.73;;;10.00;99.90;;;;;;5117990;28;20793;-65
2021/03/13 12:58:23;;;;;;;0.70;0.50;;;10.00;99.90;;;;;;5117456;28;20440;-65
2021/03/13 13:00:51;;;;;;;1.47;0.73;;;10.00;99.90;;;;;;5116692;28;20458;-66
2021/03/13 13:03:19;;;;;;;1.13;0.80;;;10.00;99.90;;;;;;5115806;28;20462;-67
2021/03/13 13:05:47;;;;;;;0.80;0.80;;;10.00;99.90;;;;;;5079723;28;20499;-65
2021/03/13 13:08:15;;;;;;;1.27;0.60;;;10.00;99.90;;;;;;5090173;28;20878;-65
2021/03/13 13:10:44;;;;;;;0.80;0.60;;;9.90;99.90;;;;;;5118011;28;20850;-66
2021/03/13 13:13:16;;;;;;;0.90;0.70;;;9.80;99.90;;;;;;5117878;28;20858;-66
2021/03/13 13:15:47;;;;;;;0.60;0.60;;;9.80;99.90;;;;;;5115958;28;20494;-65
2021/03/13 13:18:15;;;;;;;1.03;0.70;;;9.80;99.90;;;;;;5117176;28;20474;-65
2021/03/13 13:20:44;;;;;;;1.57;0.90;;;9.80;99.90;;;;;;5116777;28;20466;-66
2021/03/13 13:23:12;;;;;;;0.60;0.50;;;10.00;99.90;;;;;;5098411;28;20460;-68
2021/03/13 13:25:41;;;;;;;1.47;1.10;;;10.10;99.90;;;;;;5117208;28;20494;-64
2021/03/13 13:28:12;;;;;;;0.50;0.50;;;10.10;99.90;;;;;;5116863;28;20465;-65
2021/03/13 13:30:41;;;;;;;0.90;0.67;;;10.00;99.90;;;;;;5115607;28;20533;-65
2021/03/13 13:33:11;;;;;;;1.30;0.80;;;10.30;99.90;;;;;;5117302;28;20673;-68